createdAt,value
2022-08-22T00:01:42.629Z,65.59
2022-08-22T00:02:49.120Z,62.57
2022-08-22T00:03:12.195Z,65.55
2022-08-22T00:04:26.572Z,65.98
2022-08-22T00:07:22.058Z,63.66
2022-08-22T00:10:04.996Z,62.74
2022-08-22T00:12:52.636Z,63.11
2022-08-22T00:15:42.531Z,64.56
2022-08-22T00:18:27.217Z,65.71
2022-08-22T00:21:18.712Z,66.40
2022-08-22T00:24:27.080Z,65.76
2022-08-22T00:27:04.468Z,64.50
2022-08-22T00:29:39.909Z,64.45
2022-08-22T00:32:15.199Z,64.78
2022-08-22T00:34:54.796Z,65.33
2022-08-22T00:37:22.068Z,66.01
2022-08-22T00:40:10.135Z,66.51
2022-08-22T00:42:56.814Z,65.99
2022-08-22T00:45:45.240Z,64.57
2022-08-22T00:48:51.088Z,64.29
2022-08-22T00:51:31.508Z,64.58
2022-08-22T00:54:28.755Z,65.20
2022-08-22T00:57:39.171Z,65.93
2022-08-22T01:00:13.592Z,66.32
2022-08-22T01:02:52.686Z,67.19
2022-08-22T01:05:41.228Z,66.47
2022-08-22T01:08:18.299Z,64.70
2022-08-22T01:11:08.443Z,64.42
2022-08-22T01:13:49.393Z,65.03
2022-08-22T01:16:56.496Z,65.17
2022-08-22T01:19:54.510Z,66.16
2022-08-22T01:22:33.731Z,67.18
2022-08-22T01:25:26.290Z,66.32
2022-08-22T01:27:59.775Z,64.96
2022-08-22T01:31:07.452Z,64.57
2022-08-22T01:34:14.337Z,65.31
2022-08-22T01:37:10.195Z,66.19
2022-08-22T01:40:01.709Z,66.87
2022-08-22T01:43:06.785Z,65.93
2022-08-22T01:45:36.687Z,65.05
2022-08-22T01:48:12.959Z,64.92
2022-08-22T01:50:45.487Z,65.32
2022-08-22T01:53:22.908Z,66.10
2022-08-22T01:55:58.967Z,66.68
2022-08-22T01:58:31.343Z,67.34
2022-08-22T02:01:19.027Z,66.87
2022-08-22T02:04:02.171Z,65.20
2022-08-22T02:06:41.354Z,64.89
2022-08-22T02:09:38.955Z,65.00
2022-08-22T02:12:25.690Z,66.02
2022-08-22T02:15:02.609Z,66.90
2022-08-22T02:17:32.811Z,67.66
2022-08-22T02:20:29.180Z,67.43
2022-08-22T02:23:21.984Z,65.86
2022-08-22T02:25:57.131Z,64.92
2022-08-22T02:28:56.936Z,65.99
2022-08-22T02:31:53.178Z,66.67
2022-08-22T02:34:28.264Z,67.36
2022-08-22T02:37:13.833Z,67.88
2022-08-22T02:39:49.838Z,67.36
2022-08-22T02:42:45.060Z,65.66
2022-08-22T02:45:23.261Z,65.33
2022-08-22T02:48:05.943Z,65.78
2022-08-22T02:50:52.881Z,66.59
2022-08-22T02:53:48.163Z,67.33
2022-08-22T02:56:28.669Z,68.10
2022-08-22T02:59:18.800Z,67.13
2022-08-22T03:01:46.555Z,65.74
2022-08-22T03:04:34.180Z,65.57
2022-08-22T03:07:09.217Z,66.10
2022-08-22T03:09:41.471Z,66.51
2022-08-22T03:12:26.636Z,67.17
2022-08-22T03:15:00.365Z,68.15
2022-08-22T03:17:35.015Z,67.48
2022-08-22T03:20:10.642Z,65.88
2022-08-22T03:23:03.773Z,65.39
2022-08-22T03:25:37.358Z,65.80
2022-08-22T03:28:12.236Z,66.53
2022-08-22T03:31:22.654Z,67.30
2022-08-22T03:34:16.373Z,67.94
2022-08-22T03:37:06.507Z,66.91
2022-08-22T03:39:51.498Z,65.69
2022-08-22T03:42:35.985Z,66.05
2022-08-22T03:45:41.382Z,66.54
2022-08-22T03:48:29.604Z,67.71
2022-08-22T03:51:14.545Z,68.49
2022-08-22T03:53:46.212Z,67.68
2022-08-22T03:56:35.056Z,65.60
2022-08-22T03:59:32.153Z,65.55
2022-08-22T04:02:43.256Z,66.58
2022-08-22T04:05:33.380Z,67.24
2022-08-22T04:08:11.224Z,68.20
2022-08-22T04:11:07.013Z,67.59
2022-08-22T04:14:10.108Z,66.04
2022-08-22T04:16:42.079Z,66.16
2022-08-22T04:19:16.216Z,66.56
2022-08-22T04:21:49.310Z,67.22
2022-08-22T04:24:24.455Z,67.75
2022-08-22T04:26:58.208Z,68.29
2022-08-22T04:29:34.139Z,67.90
2022-08-22T04:32:14.777Z,66.52
2022-08-22T04:34:54.860Z,65.89
2022-08-22T04:37:28.115Z,66.40
2022-08-22T04:40:02.354Z,66.41
2022-08-22T04:42:42.436Z,66.83
2022-08-22T04:45:18.389Z,67.28
2022-08-22T04:47:54.202Z,67.51
2022-08-22T04:51:00.720Z,66.04
2022-08-22T04:53:50.068Z,65.82
2022-08-22T04:57:02.917Z,66.34
2022-08-22T04:59:30.134Z,66.50
2022-08-22T05:02:06.825Z,68.13
2022-08-22T05:05:13.476Z,67.34
2022-08-22T05:07:46.390Z,64.04
2022-08-22T05:10:17.791Z,62.48
2022-08-22T05:12:54.944Z,62.93
2022-08-22T05:15:24.843Z,64.56
2022-08-22T05:17:54.347Z,64.57
2022-08-22T05:20:23.993Z,64.97
2022-08-22T05:22:53.038Z,66.01
2022-08-22T05:25:22.585Z,65.38
2022-08-22T05:27:56.256Z,63.08
2022-08-22T05:30:28.007Z,62.46
2022-08-22T05:32:57.391Z,63.49
2022-08-22T05:35:33.723Z,63.64
2022-08-22T05:38:01.177Z,63.82
2022-08-22T05:40:30.241Z,63.62
2022-08-22T05:42:57.853Z,64.40
2022-08-22T05:45:26.600Z,63.67
2022-08-22T05:48:04.337Z,62.63
2022-08-22T05:50:38.207Z,62.07
2022-08-22T05:53:28.588Z,62.29
2022-08-22T05:56:11.068Z,63.17
2022-08-22T05:58:39.086Z,63.35
2022-08-22T06:01:27.875Z,64.37
2022-08-22T06:04:11.940Z,65.04
2022-08-22T06:07:01.591Z,64.36
2022-08-22T06:09:55.344Z,62.80
2022-08-22T06:12:34.834Z,63.00
2022-08-22T06:15:12.760Z,62.85
2022-08-22T06:17:51.460Z,63.95
2022-08-22T06:20:21.352Z,64.71
2022-08-22T06:22:53.784Z,63.69
2022-08-22T06:25:47.606Z,64.52
2022-08-22T06:28:19.988Z,62.39
2022-08-22T06:30:47.460Z,60.55
2022-08-22T06:33:17.299Z,59.75
2022-08-22T06:36:05.431Z,59.89
2022-08-22T06:38:54.419Z,61.25
2022-08-22T06:41:22.264Z,60.18
2022-08-22T06:43:50.007Z,60.51
2022-08-22T06:46:17.143Z,60.51
2022-08-22T06:48:44.802Z,59.05
2022-08-22T06:51:12.471Z,59.40
2022-08-22T06:53:47.703Z,59.42
2022-08-22T06:56:26.600Z,59.82
2022-08-22T06:58:55.627Z,59.89
2022-08-22T07:01:25.447Z,59.89
2022-08-22T07:04:01.187Z,60.38
2022-08-22T07:06:39.521Z,60.20
2022-08-22T07:09:07.250Z,60.62
2022-08-22T07:11:39.562Z,60.48
2022-08-22T07:14:12.078Z,61.44
2022-08-22T07:16:42.173Z,60.73
2022-08-22T07:19:42.235Z,59.53
2022-08-22T07:22:19.307Z,59.16
2022-08-22T07:24:48.294Z,59.53
2022-08-22T07:27:49.808Z,59.19
2022-08-22T07:30:27.564Z,60.13
2022-08-22T07:33:23.643Z,60.27
2022-08-22T07:36:06.067Z,61.08
2022-08-22T07:38:34.952Z,60.67
2022-08-22T07:41:06.522Z,62.39
2022-08-22T07:43:42.007Z,60.76
2022-08-22T07:46:09.185Z,58.47
2022-08-22T07:49:08.122Z,57.86
2022-08-22T07:51:40.527Z,58.56
2022-08-22T07:54:09.370Z,59.25
2022-08-22T07:56:42.417Z,61.56
2022-08-22T07:59:14.914Z,61.00
2022-08-22T08:01:46.559Z,61.04
2022-08-22T08:04:17.643Z,60.83
2022-08-22T08:06:48.639Z,61.56
2022-08-22T08:09:15.742Z,59.02
2022-08-22T08:11:43.645Z,58.17
2022-08-22T08:14:13.608Z,57.41
2022-08-22T08:16:43.825Z,55.34
2022-08-22T08:19:12.193Z,54.33
2022-08-22T08:21:47.150Z,54.77
2022-08-22T08:24:16.150Z,54.05
2022-08-22T08:27:06.709Z,53.07
2022-08-22T08:29:37.297Z,53.97
2022-08-22T08:32:05.007Z,53.17
2022-08-22T08:34:32.632Z,53.91
2022-08-22T08:37:12.765Z,53.69
2022-08-22T08:39:50.803Z,55.97
2022-08-22T08:43:03.340Z,55.51
2022-08-22T08:45:51.779Z,56.15
2022-08-22T08:48:35.759Z,56.28
2022-08-22T08:51:35.763Z,56.70
2022-08-22T08:54:19.468Z,57.74
2022-08-22T08:57:18.898Z,58.46
2022-08-22T09:00:07.642Z,58.89
2022-08-22T09:03:01.241Z,59.51
2022-08-22T09:05:47.290Z,58.99
2022-08-22T09:08:17.519Z,59.54
2022-08-22T09:11:00.939Z,57.00
2022-08-22T09:13:55.800Z,55.87
2022-08-22T09:16:46.302Z,57.77
2022-08-22T09:19:31.457Z,58.21
2022-08-22T09:22:33.448Z,58.05
2022-08-22T09:25:39.270Z,58.29
2022-08-22T09:28:20.455Z,59.59
2022-08-22T09:30:58.663Z,59.33
2022-08-22T09:33:34.147Z,58.04
2022-08-22T09:36:18.051Z,56.15
2022-08-22T09:39:14.287Z,57.17
2022-08-22T09:42:02.796Z,56.66
2022-08-22T09:44:39.475Z,55.63
2022-08-22T09:47:24.261Z,56.58
2022-08-22T09:50:08.740Z,58.48
2022-08-22T09:52:46.995Z,58.19
2022-08-22T09:55:35.337Z,55.37
2022-08-22T09:58:20.245Z,48.50
2022-08-22T10:00:54.960Z,51.10
2022-08-22T10:04:59.237Z,49.37
2022-08-22T10:07:53.302Z,51.84
2022-08-22T10:10:39.217Z,53.25
2022-08-22T10:13:27.195Z,50.49
2022-08-22T10:16:13.623Z,48.95
2022-08-22T10:18:53.246Z,50.92
2022-08-22T10:21:35.445Z,46.81
2022-08-22T10:24:25.316Z,50.64
2022-08-22T10:26:54.862Z,49.77
2022-08-22T10:29:51.970Z,49.49
2022-08-22T10:32:50.622Z,47.64
2022-08-22T10:35:33.675Z,50.51
2022-08-22T10:38:25.205Z,50.57
2022-08-22T10:41:45.506Z,48.74
2022-08-22T10:44:17.393Z,46.76
2022-08-22T10:46:47.462Z,43.56
2022-08-22T10:49:33.216Z,46.31
2022-08-22T10:52:16.193Z,46.56
2022-08-22T10:54:52.686Z,45.90
2022-08-22T10:57:32.645Z,47.51
2022-08-22T11:00:10.190Z,45.84
2022-08-22T11:02:53.614Z,44.01
2022-08-22T11:05:27.559Z,44.67
2022-08-22T11:08:49.483Z,47.05
2022-08-22T11:11:20.804Z,51.70
2022-08-22T11:14:08.658Z,46.23
2022-08-22T11:16:55.025Z,47.23
2022-08-22T11:19:26.359Z,46.28
2022-08-22T11:22:10.058Z,46.09
2022-08-22T11:25:04.390Z,44.78
2022-08-22T11:27:38.377Z,46.21
2022-08-22T11:30:18.112Z,45.06
2022-08-22T11:33:17.314Z,44.17
2022-08-22T11:35:50.421Z,46.01
2022-08-22T11:38:37.717Z,44.81
2022-08-22T11:41:24.353Z,45.39
2022-08-22T11:44:03.473Z,44.35
2022-08-22T11:46:33.251Z,40.40
2022-08-22T11:49:33.191Z,42.60
2022-08-22T11:52:26.827Z,41.60
2022-08-22T11:55:23.064Z,40.35
2022-08-22T11:57:52.847Z,40.20
2022-08-22T12:00:23.602Z,41.04
2022-08-22T12:02:53.403Z,38.13
2022-08-22T12:05:24.494Z,39.24
2022-08-22T12:08:08.290Z,39.72
2022-08-22T12:10:38.339Z,40.52
2022-08-22T12:13:35.056Z,41.26
2022-08-22T12:16:38.990Z,39.57
2022-08-22T12:19:24.957Z,41.26
2022-08-22T12:22:31.320Z,41.05
2022-08-22T12:25:17.926Z,42.88
2022-08-22T12:27:58.315Z,44.32
2022-08-22T12:30:45.845Z,43.65
2022-08-22T12:33:34.878Z,44.15
2022-08-22T12:36:18.443Z,53.61
2022-08-22T12:39:36.510Z,60.83
2022-08-22T12:42:23.356Z,65.94
2022-08-22T12:45:03.644Z,68.17
2022-08-22T12:47:42.168Z,68.37
2022-08-22T12:50:20.650Z,69.01
2022-08-22T12:53:10.189Z,70.70
2022-08-22T12:55:46.057Z,73.26
2022-08-22T12:58:42.941Z,73.44
2022-08-22T13:01:11.442Z,71.55
2022-08-22T13:03:50.613Z,71.07
2022-08-22T13:06:36.241Z,71.29
2022-08-22T13:09:31.203Z,72.52
2022-08-22T13:12:20.712Z,72.26
2022-08-22T13:14:49.992Z,71.72
2022-08-22T13:17:24.941Z,72.31
2022-08-22T13:20:11.635Z,73.00
2022-08-22T13:22:41.216Z,74.00
2022-08-22T13:25:26.039Z,72.69
2022-08-22T13:27:56.188Z,71.82
2022-08-22T13:30:40.189Z,71.69
2022-08-22T13:33:15.063Z,72.30
2022-08-22T13:35:52.377Z,72.87
2022-08-22T13:38:27.016Z,72.72
2022-08-22T13:40:57.887Z,70.47
2022-08-22T13:43:31.373Z,71.22
2022-08-22T13:46:06.352Z,70.32
2022-08-22T13:48:47.051Z,68.77
2022-08-22T13:51:21.307Z,67.70
2022-08-22T13:54:20.095Z,64.43
2022-08-22T13:56:50.534Z,64.96
2022-08-22T13:59:51.806Z,64.88
2022-08-22T14:02:39.431Z,66.92
2022-08-22T14:05:13.528Z,65.95
2022-08-22T14:07:58.284Z,64.01
2022-08-22T14:10:28.795Z,62.26
2022-08-22T14:12:59.045Z,59.38
2022-08-22T14:15:32.317Z,59.72
2022-08-22T14:18:17.702Z,58.80
2022-08-22T14:20:46.465Z,59.14
2022-08-22T14:23:27.276Z,59.64
2022-08-22T14:25:54.815Z,60.15
2022-08-22T14:28:27.442Z,60.87
2022-08-22T14:31:14.485Z,60.56
2022-08-22T14:33:49.144Z,62.84
2022-08-22T14:36:22.027Z,61.78
2022-08-22T14:38:57.317Z,59.15
2022-08-22T14:41:55.466Z,58.35
2022-08-22T14:44:29.154Z,59.58
2022-08-22T14:46:58.075Z,59.81
2022-08-22T14:49:29.629Z,59.32
2022-08-22T14:52:00.585Z,60.05
2022-08-22T14:54:29.133Z,59.02
2022-08-22T14:56:56.906Z,59.50
2022-08-22T14:59:33.836Z,59.89
2022-08-22T15:02:02.952Z,60.49
2022-08-22T15:04:39.491Z,61.00
2022-08-22T15:07:08.511Z,62.41
2022-08-22T15:10:17.952Z,61.67
2022-08-22T15:12:54.140Z,59.74
2022-08-22T15:16:05.688Z,59.24
2022-08-22T15:18:35.672Z,60.63
2022-08-22T15:21:28.015Z,62.00
2022-08-22T15:23:59.832Z,63.82
2022-08-22T15:26:33.364Z,63.13
2022-08-22T15:29:28.939Z,64.56
2022-08-22T15:31:58.782Z,63.21
2022-08-22T15:34:44.451Z,62.01
2022-08-22T15:37:18.094Z,63.08
2022-08-22T15:40:12.773Z,62.56
2022-08-22T15:42:44.833Z,63.23
2022-08-22T15:45:34.016Z,62.58
2022-08-22T15:48:04.721Z,63.83
2022-08-22T15:50:39.039Z,64.96
2022-08-22T15:53:20.339Z,63.50
2022-08-22T15:56:25.796Z,62.42
2022-08-22T15:59:15.104Z,62.29
2022-08-22T16:01:49.943Z,62.56
2022-08-22T16:04:30.601Z,63.27
2022-08-22T16:06:58.371Z,63.81
2022-08-22T16:09:34.730Z,64.36
2022-08-22T16:12:04.029Z,65.47
2022-08-22T16:14:34.157Z,64.77
2022-08-22T16:17:07.261Z,62.83
2022-08-22T16:19:38.272Z,62.76
2022-08-22T16:22:07.298Z,62.53
2022-08-22T16:24:59.168Z,62.68
2022-08-22T16:27:26.716Z,63.92
2022-08-22T16:30:08.096Z,64.22
2022-08-22T16:32:35.404Z,64.43
2022-08-22T16:35:02.593Z,63.90
2022-08-22T16:37:43.923Z,62.72
2022-08-22T16:40:23.213Z,62.10
2022-08-22T16:42:53.415Z,63.20
2022-08-22T16:45:36.941Z,63.08
2022-08-22T16:48:32.416Z,64.21
2022-08-22T16:51:12.827Z,65.54
2022-08-22T16:53:45.885Z,64.45
2022-08-22T16:56:33.111Z,63.24
2022-08-22T16:59:52.845Z,63.32
2022-08-22T17:02:45.995Z,64.20
2022-08-22T17:05:19.138Z,64.10
2022-08-22T17:07:56.425Z,65.04
2022-08-22T17:10:41.424Z,64.69
2022-08-22T17:13:37.679Z,63.99
2022-08-22T17:16:31.544Z,64.19
2022-08-22T17:19:13.947Z,64.83
2022-08-22T17:22:04.773Z,65.61
2022-08-22T17:24:47.670Z,65.88
2022-08-22T17:27:38.722Z,64.34
2022-08-22T17:30:07.367Z,64.22
2022-08-22T17:33:26.659Z,64.04
2022-08-22T17:36:36.819Z,64.41
2022-08-22T17:39:26.462Z,66.17
2022-08-22T17:42:20.924Z,67.10
2022-08-22T17:45:13.187Z,66.17
2022-08-22T17:47:47.590Z,65.27
2022-08-22T17:50:18.641Z,65.28
2022-08-22T17:53:07.287Z,65.76
2022-08-22T17:55:55.004Z,66.62
2022-08-22T17:58:35.707Z,67.66
2022-08-22T18:01:46.422Z,65.46
2022-08-22T18:04:25.982Z,65.33
2022-08-22T18:08:01.970Z,65.30
2022-08-22T18:10:41.438Z,65.57
2022-08-22T18:13:36.227Z,66.53
2022-08-22T18:16:11.471Z,67.82
2022-08-22T18:18:44.822Z,67.13
2022-08-22T18:21:32.288Z,66.03
2022-08-22T18:24:13.024Z,65.91
2022-08-22T18:26:43.683Z,66.49
2022-08-22T18:29:17.582Z,67.26
2022-08-22T18:32:14.835Z,68.19
2022-08-22T18:35:02.568Z,67.55
2022-08-22T18:37:35.359Z,66.40
2022-08-22T18:40:04.747Z,66.45
2022-08-22T18:42:34.718Z,67.02
2022-08-22T18:45:02.140Z,67.47
2022-08-22T18:47:34.510Z,68.17
2022-08-22T18:50:22.688Z,68.11
2022-08-22T18:52:51.822Z,66.74
2022-08-22T18:55:50.351Z,66.74
2022-08-22T18:58:58.892Z,67.34
2022-08-22T19:01:58.236Z,68.35
2022-08-22T19:04:54.665Z,67.44
2022-08-22T19:07:48.317Z,65.24
2022-08-22T19:10:23.088Z,63.41
2022-08-22T19:12:53.299Z,62.95
2022-08-22T19:15:26.834Z,63.76
2022-08-22T19:18:13.516Z,64.96
2022-08-22T19:20:59.783Z,64.91
2022-08-22T19:23:37.444Z,66.32
2022-08-22T19:26:24.763Z,65.10
2022-08-22T19:28:53.244Z,64.89
2022-08-22T19:31:50.744Z,65.14
2022-08-22T19:34:30.606Z,65.06
2022-08-22T19:37:32.322Z,66.17
2022-08-22T19:40:10.921Z,67.73
2022-08-22T19:42:41.678Z,67.01
2022-08-22T19:45:29.537Z,65.61
2022-08-22T19:47:59.828Z,65.13
2022-08-22T19:50:33.887Z,65.65
2022-08-22T19:53:11.291Z,66.43
2022-08-22T19:55:38.536Z,67.14
2022-08-22T19:58:31.947Z,67.55
2022-08-22T20:01:29.881Z,65.45
2022-08-22T20:04:20.716Z,64.51
2022-08-22T20:07:45.668Z,65.67
2022-08-22T20:10:34.538Z,66.55
2022-08-22T20:13:27.660Z,67.21
2022-08-22T20:16:10.419Z,66.40
2022-08-22T20:18:53.520Z,65.32
2022-08-22T20:21:46.906Z,65.24
2022-08-22T20:24:25.687Z,65.21
2022-08-22T20:27:12.828Z,66.32
2022-08-22T20:30:05.130Z,66.78
2022-08-22T20:32:37.733Z,64.63
2022-08-22T20:35:05.635Z,64.80
2022-08-22T20:38:04.842Z,64.89
2022-08-22T20:40:57.648Z,64.95
2022-08-22T20:43:36.119Z,65.74
2022-08-22T20:46:13.951Z,67.23
2022-08-22T20:48:45.221Z,66.67
2022-08-22T20:51:17.889Z,65.61
2022-08-22T20:53:53.293Z,65.35
2022-08-22T20:56:53.022Z,65.98
2022-08-22T20:59:27.548Z,66.82
2022-08-22T21:02:02.204Z,65.41
2022-08-22T21:04:39.505Z,64.68
2022-08-22T21:07:30.975Z,63.97
2022-08-22T21:10:22.547Z,61.49
2022-08-22T21:13:04.911Z,61.82
2022-08-22T21:15:47.087Z,62.27
2022-08-22T21:18:26.358Z,62.59
2022-08-22T21:20:53.993Z,63.23
2022-08-22T21:23:21.947Z,64.46
2022-08-22T21:26:07.580Z,63.68
2022-08-22T21:28:54.348Z,63.54
2022-08-22T21:31:23.758Z,64.54
2022-08-22T21:33:52.116Z,65.41
2022-08-22T21:36:22.267Z,65.04
2022-08-22T21:38:58.088Z,67.03
2022-08-22T21:41:28.470Z,66.52
2022-08-22T21:43:56.113Z,63.68
2022-08-22T21:46:28.688Z,62.20
2022-08-22T21:49:02.025Z,62.73
2022-08-22T21:51:44.852Z,63.35
2022-08-22T21:54:39.778Z,66.35
2022-08-22T21:57:13.714Z,67.95
2022-08-22T21:59:52.177Z,67.52
2022-08-22T22:02:29.365Z,65.24
2022-08-22T22:04:59.454Z,65.21
2022-08-22T22:07:27.241Z,65.97
2022-08-22T22:09:55.021Z,66.71
2022-08-22T22:12:23.075Z,67.60
2022-08-22T22:14:50.435Z,68.64
2022-08-22T22:17:18.604Z,68.53
2022-08-22T22:19:46.184Z,67.10
2022-08-22T22:22:21.922Z,66.83
2022-08-22T22:24:52.749Z,66.95
2022-08-22T22:27:19.916Z,67.79
2022-08-22T22:29:47.278Z,67.83
2022-08-22T22:32:15.268Z,68.43
2022-08-22T22:34:42.885Z,67.70
2022-08-22T22:37:11.894Z,66.02
2022-08-22T22:39:39.900Z,66.40
2022-08-22T22:42:09.172Z,66.32
2022-08-22T22:44:40.035Z,66.07
2022-08-22T22:47:13.914Z,67.35
2022-08-22T22:49:41.188Z,68.68
2022-08-22T22:52:11.982Z,68.44
2022-08-22T22:54:39.533Z,66.02
2022-08-22T22:57:12.203Z,66.66
2022-08-22T22:59:40.776Z,67.30
2022-08-22T23:02:13.667Z,67.72
2022-08-22T23:04:45.703Z,68.19
2022-08-22T23:07:14.246Z,68.48
2022-08-22T23:09:45.106Z,68.81
2022-08-22T23:12:13.604Z,67.33
2022-08-22T23:14:42.435Z,67.16
2022-08-22T23:17:09.991Z,67.32
2022-08-22T23:19:38.983Z,67.52
2022-08-22T23:22:06.878Z,68.09
2022-08-22T23:24:37.972Z,69.03
2022-08-22T23:27:06.708Z,68.07
2022-08-22T23:29:34.020Z,67.30
2022-08-22T23:32:02.346Z,67.13
2022-08-22T23:34:32.464Z,67.58
2022-08-22T23:37:00.978Z,68.27
2022-08-22T23:39:29.041Z,68.88
2022-08-22T23:41:56.702Z,69.66
2022-08-22T23:44:25.817Z,69.04
2022-08-22T23:46:53.578Z,67.43
2022-08-22T23:49:21.016Z,67.17
2022-08-22T23:51:50.791Z,67.36
2022-08-22T23:54:18.388Z,68.02
2022-08-22T23:56:48.647Z,68.86
2022-08-22T23:59:18.633Z,69.65
